Terminal Aerodrome Forecast
Issued by NWS Nashville, TN

Home | Current Version | Previous Version | Text Only | Print | Product List | Glossary On
Versions: 1 2 3 4 5 6 7 8 9 10 11 12 13 14 15 16 17 18 19 20 21 22 23 24 25 26 27
000
FTUS44 KOHX 200500
TAFCSV
TAF
KCSV 200529Z 2006/2106 06004KT P6SM -PLSN BKN050 OVC090
     FM201200 35004KT P6SM BKN040 OVC080
     FM210000 00000KT P6SM SCT040=

USA.gov is the U.S. government's official web portal to all federal, state and local government web resources and services.